sensor_id;sensor_type;location;lat;lon;timestamp;temperature;humidity
18189;DHT22;9219;50.396;8.546;2023-07-09T00:00:38;27.00;99.90
18189;DHT22;9219;50.396;8.546;2023-07-09T00:03:08;26.70;99.90
18189;DHT22;9219;50.396;8.546;2023-07-09T00:09:21;26.70;99.90
18189;DHT22;9219;50.396;8.546;2023-07-09T00:11:49;26.60;99.90
18189;DHT22;9219;50.396;8.546;2023-07-09T00:14:17;26.60;99.90
18189;DHT22;9219;50.396;8.546;2023-07-09T00:16:46;26.60;99.90
18189;DHT22;9219;50.396;8.546;2023-07-09T00:19:16;26.50;99.90
18189;DHT22;9219;50.396;8.546;2023-07-09T00:21:46;26.40;99.90
18189;DHT22;9219;50.396;8.546;2023-07-09T00:24:13;26.40;99.90
18189;DHT22;9219;50.396;8.546;2023-07-09T00:26:42;26.50;99.90
18189;DHT22;9219;50.396;8.546;2023-07-09T00:29:47;26.40;99.90
18189;DHT22;9219;50.396;8.546;2023-07-09T00:32:16;26.40;99.90
18189;DHT22;9219;50.396;8.546;2023-07-09T00:34:47;26.40;99.90
18189;DHT22;9219;50.396;8.546;2023-07-09T00:37:16;26.40;99.90
18189;DHT22;9219;50.396;8.546;2023-07-09T00:39:44;26.20;99.90
18189;DHT22;9219;50.396;8.546;2023-07-09T00:42:13;26.20;99.90
18189;DHT22;9219;50.396;8.546;2023-07-09T00:44:44;26.00;99.90
18189;DHT22;9219;50.396;8.546;2023-07-09T00:47:21;26.10;99.90
18189;DHT22;9219;50.396;8.546;2023-07-09T00:54:56;26.20;99.90
18189;DHT22;9219;50.396;8.546;2023-07-09T00:57:26;26.10;99.90
18189;DHT22;9219;50.396;8.546;2023-07-09T00:59:59;26.20;99.90
18189;DHT22;9219;50.396;8.546;2023-07-09T01:02:29;26.10;99.90
18189;DHT22;9219;50.396;8.546;2023-07-09T01:04:59;26.10;99.90
18189;DHT22;9219;50.396;8.546;2023-07-09T01:07:29;26.10;99.90
18189;DHT22;9219;50.396;8.546;2023-07-09T01:09:57;26.20;99.90
18189;DHT22;9219;50.396;8.546;2023-07-09T01:12:25;26.10;99.90
18189;DHT22;9219;50.396;8.546;2023-07-09T01:20:08;26.10;99.90
18189;DHT22;9219;50.396;8.546;2023-07-09T01:22:43;26.20;99.90
18189;DHT22;9219;50.396;8.546;2023-07-09T01:25:10;26.20;99.70
18189;DHT22;9219;50.396;8.546;2023-07-09T01:27:40;26.10;99.80
18189;DHT22;9219;50.396;8.546;2023-07-09T01:30:10;26.10;99.90
18189;DHT22;9219;50.396;8.546;2023-07-09T01:32:41;26.20;99.80
18189;DHT22;9219;50.396;8.546;2023-07-09T01:35:14;26.20;99.70
18189;DHT22;9219;50.396;8.546;2023-07-09T01:37:43;26.10;99.80
18189;DHT22;9219;50.396;8.546;2023-07-09T01:45:29;26.10;99.90
18189;DHT22;9219;50.396;8.546;2023-07-09T01:47:59;26.10;99.90
18189;DHT22;9219;50.396;8.546;2023-07-09T01:50:30;26.20;99.80
18189;DHT22;9219;50.396;8.546;2023-07-09T01:52:58;26.20;99.70
18189;DHT22;9219;50.396;8.546;2023-07-09T01:55:26;26.30;99.60
18189;DHT22;9219;50.396;8.546;2023-07-09T01:57:54;26.30;99.60
18189;DHT22;9219;50.396;8.546;2023-07-09T02:00:22;26.20;99.70
18189;DHT22;9219;50.396;8.546;2023-07-09T02:07:54;26.10;99.80
18189;DHT22;9219;50.396;8.546;2023-07-09T02:10:22;26.20;99.90
18189;DHT22;9219;50.396;8.546;2023-07-09T02:12:49;26.20;99.70
18189;DHT22;9219;50.396;8.546;2023-07-09T02:15:17;26.30;99.40
18189;DHT22;9219;50.396;8.546;2023-07-09T02:17:48;26.40;99.60
18189;DHT22;9219;50.396;8.546;2023-07-09T02:20:15;26.20;99.60
18189;DHT22;9219;50.396;8.546;2023-07-09T02:22:44;26.10;99.70
18189;DHT22;9219;50.396;8.546;2023-07-09T02:30:32;26.20;99.90
18189;DHT22;9219;50.396;8.546;2023-07-09T02:33:18;26.00;99.80
18189;DHT22;9219;50.396;8.546;2023-07-09T02:35:46;26.10;99.50
18189;DHT22;9219;50.396;8.546;2023-07-09T02:38:14;26.20;99.30
18189;DHT22;9219;50.396;8.546;2023-07-09T02:40:41;26.20;99.20
18189;DHT22;9219;50.396;8.546;2023-07-09T02:43:08;26.20;99.40
18189;DHT22;9219;50.396;8.546;2023-07-09T02:45:36;26.20;99.40
18189;DHT22;9219;50.396;8.546;2023-07-09T02:53:08;26.30;99.60
18189;DHT22;9219;50.396;8.546;2023-07-09T02:55:36;26.20;99.90
18189;DHT22;9219;50.396;8.546;2023-07-09T02:58:03;26.20;99.90
18189;DHT22;9219;50.396;8.546;2023-07-09T03:00:30;26.10;99.90
18189;DHT22;9219;50.396;8.546;2023-07-09T03:02:58;26.20;99.90
18189;DHT22;9219;50.396;8.546;2023-07-09T03:05:26;26.10;99.90
18189;DHT22;9219;50.396;8.546;2023-07-09T03:07:54;26.10;99.90
18189;DHT22;9219;50.396;8.546;2023-07-09T03:13:27;26.10;99.90
18189;DHT22;9219;50.396;8.546;2023-07-09T03:15:55;26.20;99.90
18189;DHT22;9219;50.396;8.546;2023-07-09T03:18:23;26.20;99.90
18189;DHT22;9219;50.396;8.546;2023-07-09T03:20:50;26.20;99.90
18189;DHT22;9219;50.396;8.546;2023-07-09T03:23:18;26.20;99.90
18189;DHT22;9219;50.396;8.546;2023-07-09T03:25:45;26.30;99.90
18189;DHT22;9219;50.396;8.546;2023-07-09T03:28:14;26.30;99.90
18189;DHT22;9219;50.396;8.546;2023-07-09T03:30:44;26.30;99.90
18189;DHT22;9219;50.396;8.546;2023-07-09T03:38:17;26.20;99.90
18189;DHT22;9219;50.396;8.546;2023-07-09T03:40:45;26.20;99.90
18189;DHT22;9219;50.396;8.546;2023-07-09T03:43:12;26.20;99.90
18189;DHT22;9219;50.396;8.546;2023-07-09T03:45:39;26.30;99.90
18189;DHT22;9219;50.396;8.546;2023-07-09T03:48:07;26.10;99.90
18189;DHT22;9219;50.396;8.546;2023-07-09T03:50:35;26.20;99.90
18189;DHT22;9219;50.396;8.546;2023-07-09T03:53:03;26.20;99.90
18189;DHT22;9219;50.396;8.546;2023-07-09T03:55:33;26.20;99.90
18189;DHT22;9219;50.396;8.546;2023-07-09T04:03:20;26.00;99.90
18189;DHT22;9219;50.396;8.546;2023-07-09T04:05:48;26.20;99.90
18189;DHT22;9219;50.396;8.546;2023-07-09T04:08:16;26.10;99.90
18189;DHT22;9219;50.396;8.546;2023-07-09T04:10:44;26.10;99.90
18189;DHT22;9219;50.396;8.546;2023-07-09T04:13:11;26.10;99.90
18189;DHT22;9219;50.396;8.546;2023-07-09T04:15:38;26.00;99.90
18189;DHT22;9219;50.396;8.546;2023-07-09T04:18:06;26.10;99.90
18189;DHT22;9219;50.396;8.546;2023-07-09T04:23:31;26.00;99.90
18189;DHT22;9219;50.396;8.546;2023-07-09T04:25:59;26.10;99.90
18189;DHT22;9219;50.396;8.546;2023-07-09T04:28:30;26.10;99.90
18189;DHT22;9219;50.396;8.546;2023-07-09T04:30:57;26.20;99.90
18189;DHT22;9219;50.396;8.546;2023-07-09T04:33:25;26.20;99.90
18189;DHT22;9219;50.396;8.546;2023-07-09T04:35:53;26.30;99.90
18189;DHT22;9219;50.396;8.546;2023-07-09T04:38:20;26.20;99.90
18189;DHT22;9219;50.396;8.546;2023-07-09T04:43:59;26.20;99.90
18189;DHT22;9219;50.396;8.546;2023-07-09T04:46:27;26.30;99.90
18189;DHT22;9219;50.396;8.546;2023-07-09T04:48:54;26.40;99.90
18189;DHT22;9219;50.396;8.546;2023-07-09T04:51:22;26.40;99.90
18189;DHT22;9219;50.396;8.546;2023-07-09T04:53:49;26.30;99.90
18189;DHT22;9219;50.396;8.546;2023-07-09T04:56:18;26.30;99.90
18189;DHT22;9219;50.396;8.546;2023-07-09T04:58:45;26.30;99.90
18189;DHT22;9219;50.396;8.546;2023-07-09T05:01:13;26.10;99.90
18189;DHT22;9219;50.396;8.546;2023-07-09T05:09:18;26.20;99.90
18189;DHT22;9219;50.396;8.546;2023-07-09T05:11:46;26.40;99.90
18189;DHT22;9219;50.396;8.546;2023-07-09T05:14:13;26.50;99.90
18189;DHT22;9219;50.396;8.546;2023-07-09T05:16:40;26.50;99.90
18189;DHT22;9219;50.396;8.546;2023-07-09T05:19:08;26.60;99.90
18189;DHT22;9219;50.396;8.546;2023-07-09T05:21:35;26.50;99.90
18189;DHT22;9219;50.396;8.546;2023-07-09T05:24:03;26.60;99.90
18189;DHT22;9219;50.396;8.546;2023-07-09T05:26:32;26.70;99.90
18189;DHT22;9219;50.396;8.546;2023-07-09T05:34:07;26.90;99.90
18189;DHT22;9219;50.396;8.546;2023-07-09T05:36:34;26.90;99.90
18189;DHT22;9219;50.396;8.546;2023-07-09T05:39:02;27.00;99.90
18189;DHT22;9219;50.396;8.546;2023-07-09T05:41:30;27.00;99.90
18189;DHT22;9219;50.396;8.546;2023-07-09T05:43:57;27.00;99.90
18189;DHT22;9219;50.396;8.546;2023-07-09T05:46:25;27.20;99.90
18189;DHT22;9219;50.396;8.546;2023-07-09T05:48:52;27.30;99.90
18189;DHT22;9219;50.396;8.546;2023-07-09T05:54:09;27.40;99.90
18189;DHT22;9219;50.396;8.546;2023-07-09T05:56:37;27.50;99.90
18189;DHT22;9219;50.396;8.546;2023-07-09T05:59:05;27.70;99.90
18189;DHT22;9219;50.396;8.546;2023-07-09T06:01:32;27.70;99.90
18189;DHT22;9219;50.396;8.546;2023-07-09T06:04:00;27.80;99.90
18189;DHT22;9219;50.396;8.546;2023-07-09T06:06:27;27.80;99.90
18189;DHT22;9219;50.396;8.546;2023-07-09T06:09:22;27.80;99.90
18189;DHT22;9219;50.396;8.546;2023-07-09T06:17:07;28.00;99.90
18189;DHT22;9219;50.396;8.546;2023-07-09T06:19:35;28.20;99.90
18189;DHT22;9219;50.396;8.546;2023-07-09T06:22:03;28.10;99.90
18189;DHT22;9219;50.396;8.546;2023-07-09T06:24:31;28.20;99.90
18189;DHT22;9219;50.396;8.546;2023-07-09T06:26:58;28.20;99.90
18189;DHT22;9219;50.396;8.546;2023-07-09T06:29:26;28.30;99.90
18189;DHT22;9219;50.396;8.546;2023-07-09T06:31:53;28.20;99.90
18189;DHT22;9219;50.396;8.546;2023-07-09T06:34:22;28.30;99.90
18189;DHT22;9219;50.396;8.546;2023-07-09T06:42:35;28.30;99.90
18189;DHT22;9219;50.396;8.546;2023-07-09T06:45:02;28.40;99.90
18189;DHT22;9219;50.396;8.546;2023-07-09T06:47:30;28.40;99.90
18189;DHT22;9219;50.396;8.546;2023-07-09T06:49:58;28.30;99.90
18189;DHT22;9219;50.396;8.546;2023-07-09T06:52:25;28.40;99.90
18189;DHT22;9219;50.396;8.546;2023-07-09T06:54:52;28.50;99.90
18189;DHT22;9219;50.396;8.546;2023-07-09T06:57:19;28.60;99.90
18189;DHT22;9219;50.396;8.546;2023-07-09T06:59:48;28.70;99.90
18189;DHT22;9219;50.396;8.546;2023-07-09T07:07:36;28.80;99.90
18189;DHT22;9219;50.396;8.546;2023-07-09T07:10:04;28.90;99.90
18189;DHT22;9219;50.396;8.546;2023-07-09T07:12:42;29.00;99.90
18189;DHT22;9219;50.396;8.546;2023-07-09T07:15:10;29.10;99.90
18189;DHT22;9219;50.396;8.546;2023-07-09T07:17:37;29.10;99.90
18189;DHT22;9219;50.396;8.546;2023-07-09T07:20:05;29.20;99.90
18189;DHT22;9219;50.396;8.546;2023-07-09T07:22:33;29.20;99.90
18189;DHT22;9219;50.396;8.546;2023-07-09T07:25:02;29.20;99.90
18189;DHT22;9219;50.396;8.546;2023-07-09T07:31:24;29.30;99.90
18189;DHT22;9219;50.396;8.546;2023-07-09T07:33:51;29.60;99.90
18189;DHT22;9219;50.396;8.546;2023-07-09T07:36:18;29.70;99.90
18189;DHT22;9219;50.396;8.546;2023-07-09T07:38:57;29.80;99.90
18189;DHT22;9219;50.396;8.546;2023-07-09T07:41:25;29.90;99.90
18189;DHT22;9219;50.396;8.546;2023-07-09T07:43:53;29.80;99.90
18189;DHT22;9219;50.396;8.546;2023-07-09T07:46:20;29.90;99.90
18189;DHT22;9219;50.396;8.546;2023-07-09T07:52:59;30.40;99.90
18189;DHT22;9219;50.396;8.546;2023-07-09T07:55:26;30.60;99.90
18189;DHT22;9219;50.396;8.546;2023-07-09T07:57:54;30.80;99.90
18189;DHT22;9219;50.396;8.546;2023-07-09T08:00:23;30.80;99.90
18189;DHT22;9219;50.396;8.546;2023-07-09T08:02:51;30.70;99.90
18189;DHT22;9219;50.396;8.546;2023-07-09T08:05:18;30.90;99.90
18189;DHT22;9219;50.396;8.546;2023-07-09T08:07:46;31.10;99.90
18189;DHT22;9219;50.396;8.546;2023-07-09T08:10:15;31.40;99.90
18189;DHT22;9219;50.396;8.546;2023-07-09T08:18:11;32.00;99.90
18189;DHT22;9219;50.396;8.546;2023-07-09T08:20:43;32.50;99.00
18189;DHT22;9219;50.396;8.546;2023-07-09T08:23:10;32.60;98.60
18189;DHT22;9219;50.396;8.546;2023-07-09T08:25:38;32.80;98.50
18189;DHT22;9219;50.396;8.546;2023-07-09T08:28:05;33.10;98.10
18189;DHT22;9219;50.396;8.546;2023-07-09T08:30:35;33.30;97.30
18189;DHT22;9219;50.396;8.546;2023-07-09T08:33:03;33.70;97.00
18189;DHT22;9219;50.396;8.546;2023-07-09T08:39:08;33.80;97.10
18189;DHT22;9219;50.396;8.546;2023-07-09T08:41:41;34.20;95.90
18189;DHT22;9219;50.396;8.546;2023-07-09T08:44:35;34.40;96.00
18189;DHT22;9219;50.396;8.546;2023-07-09T08:47:07;34.60;95.90
18189;DHT22;9219;50.396;8.546;2023-07-09T08:49:43;34.80;95.80
18189;DHT22;9219;50.396;8.546;2023-07-09T08:52:15;34.90;94.90
18189;DHT22;9219;50.396;8.546;2023-07-09T08:54:45;35.00;95.10
18189;DHT22;9219;50.396;8.546;2023-07-09T09:04:10;35.10;95.40
18189;DHT22;9219;50.396;8.546;2023-07-09T09:06:42;35.30;94.30
18189;DHT22;9219;50.396;8.546;2023-07-09T09:09:23;35.70;94.10
18189;DHT22;9219;50.396;8.546;2023-07-09T09:11:59;35.90;93.70
18189;DHT22;9219;50.396;8.546;2023-07-09T09:14:31;36.10;93.70
18189;DHT22;9219;50.396;8.546;2023-07-09T09:17:02;36.40;92.70
18189;DHT22;9219;50.396;8.546;2023-07-09T09:19:32;36.50;93.10
18189;DHT22;9219;50.396;8.546;2023-07-09T09:28:27;36.80;92.80
18189;DHT22;9219;50.396;8.546;2023-07-09T09:30:57;37.00;91.80
18189;DHT22;9219;50.396;8.546;2023-07-09T09:33:37;36.80;91.90
18189;DHT22;9219;50.396;8.546;2023-07-09T09:36:05;37.00;92.40
18189;DHT22;9219;50.396;8.546;2023-07-09T09:38:36;37.00;91.50
18189;DHT22;9219;50.396;8.546;2023-07-09T09:41:12;37.00;92.10
18189;DHT22;9219;50.396;8.546;2023-07-09T09:43:44;37.40;91.90
18189;DHT22;9219;50.396;8.546;2023-07-09T09:49:40;37.70;91.90
18189;DHT22;9219;50.396;8.546;2023-07-09T09:52:13;38.50;90.70
18189;DHT22;9219;50.396;8.546;2023-07-09T09:54:46;38.80;90.30
18189;DHT22;9219;50.396;8.546;2023-07-09T09:57:16;38.70;88.40
18189;DHT22;9219;50.396;8.546;2023-07-09T09:59:47;38.80;88.70
18189;DHT22;9219;50.396;8.546;2023-07-09T10:02:18;38.90;90.00
18189;DHT22;9219;50.396;8.546;2023-07-09T10:04:49;39.00;88.20
18189;DHT22;9219;50.396;8.546;2023-07-09T10:12:36;39.00;87.50
18189;DHT22;9219;50.396;8.546;2023-07-09T10:15:17;39.20;86.70
18189;DHT22;9219;50.396;8.546;2023-07-09T10:17:54;39.10;87.30
18189;DHT22;9219;50.396;8.546;2023-07-09T10:20:27;39.10;87.50
18189;DHT22;9219;50.396;8.546;2023-07-09T10:23:03;39.30;87.20
18189;DHT22;9219;50.396;8.546;2023-07-09T10:25:42;39.10;86.20
18189;DHT22;9219;50.396;8.546;2023-07-09T10:28:38;39.10;87.30
18189;DHT22;9219;50.396;8.546;2023-07-09T10:36:29;39.00;86.80
18189;DHT22;9219;50.396;8.546;2023-07-09T10:39:06;39.30;87.20
18189;DHT22;9219;50.396;8.546;2023-07-09T10:41:41;39.20;85.00
18189;DHT22;9219;50.396;8.546;2023-07-09T10:44:15;39.40;84.40
18189;DHT22;9219;50.396;8.546;2023-07-09T10:46:49;39.50;84.40
18189;DHT22;9219;50.396;8.546;2023-07-09T10:49:20;39.50;84.50
18189;DHT22;9219;50.396;8.546;2023-07-09T10:51:52;39.30;84.60
18189;DHT22;9219;50.396;8.546;2023-07-09T10:59:29;39.40;83.40
18189;DHT22;9219;50.396;8.546;2023-07-09T11:02:16;39.70;82.90
18189;DHT22;9219;50.396;8.546;2023-07-09T11:04:51;39.70;81.60
18189;DHT22;9219;50.396;8.546;2023-07-09T11:07:28;39.60;82.00
18189;DHT22;9219;50.396;8.546;2023-07-09T11:10:02;39.70;82.10
18189;DHT22;9219;50.396;8.546;2023-07-09T11:12:35;39.70;80.80
18189;DHT22;9219;50.396;8.546;2023-07-09T11:15:12;39.80;81.50
18189;DHT22;9219;50.396;8.546;2023-07-09T11:25:11;40.20;82.60
18189;DHT22;9219;50.396;8.546;2023-07-09T11:27:51;39.80;81.80
18189;DHT22;9219;50.396;8.546;2023-07-09T11:30:24;40.20;81.10
18189;DHT22;9219;50.396;8.546;2023-07-09T11:32:57;40.50;79.90
18189;DHT22;9219;50.396;8.546;2023-07-09T11:35:48;40.40;80.70
18189;DHT22;9219;50.396;8.546;2023-07-09T11:38:19;40.50;79.90
18189;DHT22;9219;50.396;8.546;2023-07-09T11:40:51;40.50;80.20
18189;DHT22;9219;50.396;8.546;2023-07-09T11:46:17;40.60;80.00
18189;DHT22;9219;50.396;8.546;2023-07-09T11:48:49;40.90;78.70
18189;DHT22;9219;50.396;8.546;2023-07-09T11:51:23;41.00;78.30
18189;DHT22;9219;50.396;8.546;2023-07-09T11:53:54;41.00;78.10
18189;DHT22;9219;50.396;8.546;2023-07-09T11:56:23;40.80;77.80
18189;DHT22;9219;50.396;8.546;2023-07-09T11:58:57;40.60;78.00
18189;DHT22;9219;50.396;8.546;2023-07-09T12:01:33;40.50;77.70
18189;DHT22;9219;50.396;8.546;2023-07-09T12:09:15;40.70;77.60
18189;DHT22;9219;50.396;8.546;2023-07-09T12:11:44;40.70;77.60
18189;DHT22;9219;50.396;8.546;2023-07-09T12:14:15;40.90;77.20
18189;DHT22;9219;50.396;8.546;2023-07-09T12:16:46;41.10;77.70
18189;DHT22;9219;50.396;8.546;2023-07-09T12:19:18;41.20;78.40
18189;DHT22;9219;50.396;8.546;2023-07-09T12:21:47;41.10;76.30
18189;DHT22;9219;50.396;8.546;2023-07-09T12:24:22;40.80;76.40
18189;DHT22;9219;50.396;8.546;2023-07-09T12:31:58;41.00;76.90
18189;DHT22;9219;50.396;8.546;2023-07-09T12:34:31;40.10;75.20
18189;DHT22;9219;50.396;8.546;2023-07-09T12:37:00;40.10;75.30
18189;DHT22;9219;50.396;8.546;2023-07-09T12:39:33;40.30;76.60
18189;DHT22;9219;50.396;8.546;2023-07-09T12:42:03;40.30;75.80
18189;DHT22;9219;50.396;8.546;2023-07-09T12:44:33;40.10;76.30
18189;DHT22;9219;50.396;8.546;2023-07-09T12:47:13;40.30;75.90
18189;DHT22;9219;50.396;8.546;2023-07-09T12:52:24;40.30;75.40
18189;DHT22;9219;50.396;8.546;2023-07-09T12:54:56;40.10;75.00
18189;DHT22;9219;50.396;8.546;2023-07-09T12:57:25;39.90;75.10
18189;DHT22;9219;50.396;8.546;2023-07-09T12:59:56;40.00;74.30
18189;DHT22;9219;50.396;8.546;2023-07-09T13:02:28;40.00;75.20
18189;DHT22;9219;50.396;8.546;2023-07-09T13:05:04;40.10;74.90
18189;DHT22;9219;50.396;8.546;2023-07-09T13:07:38;40.00;74.50
18189;DHT22;9219;50.396;8.546;2023-07-09T13:15:23;40.30;74.20
18189;DHT22;9219;50.396;8.546;2023-07-09T13:17:58;40.30;74.30
18189;DHT22;9219;50.396;8.546;2023-07-09T13:20:26;40.30;74.00
18189;DHT22;9219;50.396;8.546;2023-07-09T13:22:56;40.30;72.90
18189;DHT22;9219;50.396;8.546;2023-07-09T13:25:25;39.90;71.90
18189;DHT22;9219;50.396;8.546;2023-07-09T13:28:17;39.70;72.60
18189;DHT22;9219;50.396;8.546;2023-07-09T13:30:51;39.50;72.50
18189;DHT22;9219;50.396;8.546;2023-07-09T13:38:28;39.70;71.20
18189;DHT22;9219;50.396;8.546;2023-07-09T13:41:00;39.40;72.70
18189;DHT22;9219;50.396;8.546;2023-07-09T13:43:33;39.50;72.00
18189;DHT22;9219;50.396;8.546;2023-07-09T13:46:03;39.60;71.50
18189;DHT22;9219;50.396;8.546;2023-07-09T13:48:36;39.50;71.10
18189;DHT22;9219;50.396;8.546;2023-07-09T13:51:14;39.50;69.80
18189;DHT22;9219;50.396;8.546;2023-07-09T13:53:44;39.40;70.90
18189;DHT22;9219;50.396;8.546;2023-07-09T14:03:16;39.20;71.40
18189;DHT22;9219;50.396;8.546;2023-07-09T14:05:51;39.10;70.10
18189;DHT22;9219;50.396;8.546;2023-07-09T14:08:20;38.70;72.30
18189;DHT22;9219;50.396;8.546;2023-07-09T14:10:50;38.60;74.10
18189;DHT22;9219;50.396;8.546;2023-07-09T14:13:24;38.30;74.90
18189;DHT22;9219;50.396;8.546;2023-07-09T14:15:56;38.40;75.10
18189;DHT22;9219;50.396;8.546;2023-07-09T14:18:29;38.50;75.00
18189;DHT22;9219;50.396;8.546;2023-07-09T14:24:41;38.40;74.00
18189;DHT22;9219;50.396;8.546;2023-07-09T14:27:11;38.40;75.10
18189;DHT22;9219;50.396;8.546;2023-07-09T14:29:41;38.30;73.40
18189;DHT22;9219;50.396;8.546;2023-07-09T14:32:30;38.30;73.50
18189;DHT22;9219;50.396;8.546;2023-07-09T14:34:58;38.00;73.50
18189;DHT22;9219;50.396;8.546;2023-07-09T14:37:28;37.90;74.60
18189;DHT22;9219;50.396;8.546;2023-07-09T14:39:58;37.60;74.30
18189;DHT22;9219;50.396;8.546;2023-07-09T14:47:36;37.30;74.90
18189;DHT22;9219;50.396;8.546;2023-07-09T14:50:08;37.30;74.70
18189;DHT22;9219;50.396;8.546;2023-07-09T14:52:40;37.20;74.20
18189;DHT22;9219;50.396;8.546;2023-07-09T14:55:15;37.40;74.10
18189;DHT22;9219;50.396;8.546;2023-07-09T14:57:48;37.40;72.70
18189;DHT22;9219;50.396;8.546;2023-07-09T15:00:18;37.40;72.90
18189;DHT22;9219;50.396;8.546;2023-07-09T15:02:52;37.40;73.50
18189;DHT22;9219;50.396;8.546;2023-07-09T15:13:31;37.50;73.80
18189;DHT22;9219;50.396;8.546;2023-07-09T15:16:04;37.50;74.10
18189;DHT22;9219;50.396;8.546;2023-07-09T15:18:35;37.10;73.70
18189;DHT22;9219;50.396;8.546;2023-07-09T15:21:08;37.00;73.80
18189;DHT22;9219;50.396;8.546;2023-07-09T15:23:41;36.90;73.40
18189;DHT22;9219;50.396;8.546;2023-07-09T15:26:14;36.90;74.00
18189;DHT22;9219;50.396;8.546;2023-07-09T15:28:47;36.80;73.10
18189;DHT22;9219;50.396;8.546;2023-07-09T15:34:37;36.80;73.50
18189;DHT22;9219;50.396;8.546;2023-07-09T15:37:12;36.70;73.50
18189;DHT22;9219;50.396;8.546;2023-07-09T15:39:46;36.70;74.20
18189;DHT22;9219;50.396;8.546;2023-07-09T15:42:15;36.80;73.90
18189;DHT22;9219;50.396;8.546;2023-07-09T15:44:45;36.80;73.50
18189;DHT22;9219;50.396;8.546;2023-07-09T15:47:17;36.70;74.00
18189;DHT22;9219;50.396;8.546;2023-07-09T15:49:50;36.70;73.70
18189;DHT22;9219;50.396;8.546;2023-07-09T15:57:27;36.70;74.30
18189;DHT22;9219;50.396;8.546;2023-07-09T16:00:20;36.90;75.00
18189;DHT22;9219;50.396;8.546;2023-07-09T16:02:51;36.80;74.30
18189;DHT22;9219;50.396;8.546;2023-07-09T16:05:41;36.80;74.80
18189;DHT22;9219;50.396;8.546;2023-07-09T16:08:11;36.50;75.10
18189;DHT22;9219;50.396;8.546;2023-07-09T16:10:40;36.50;76.50
18189;DHT22;9219;50.396;8.546;2023-07-09T16:13:17;36.30;76.50
18189;DHT22;9219;50.396;8.546;2023-07-09T16:20:57;36.00;76.60
18189;DHT22;9219;50.396;8.546;2023-07-09T16:23:28;35.80;77.40
18189;DHT22;9219;50.396;8.546;2023-07-09T16:25:58;35.60;77.00
18189;DHT22;9219;50.396;8.546;2023-07-09T16:28:30;35.40;77.20
18189;DHT22;9219;50.396;8.546;2023-07-09T16:31:00;35.00;77.20
18189;DHT22;9219;50.396;8.546;2023-07-09T16:33:29;34.00;79.50
18189;DHT22;9219;50.396;8.546;2023-07-09T16:36:03;32.70;84.20
18189;DHT22;9219;50.396;8.546;2023-07-09T16:43:38;30.90;90.10
18189;DHT22;9219;50.396;8.546;2023-07-09T16:46:14;29.30;93.00
18189;DHT22;9219;50.396;8.546;2023-07-09T16:48:48;28.60;94.80
18189;DHT22;9219;50.396;8.546;2023-07-09T16:51:17;28.20;96.80
18189;DHT22;9219;50.396;8.546;2023-07-09T16:53:45;27.90;98.30
18189;DHT22;9219;50.396;8.546;2023-07-09T16:56:13;27.80;99.90
18189;DHT22;9219;50.396;8.546;2023-07-09T16:58:48;27.60;99.90
18189;DHT22;9219;50.396;8.546;2023-07-09T17:03:57;27.50;99.90
18189;DHT22;9219;50.396;8.546;2023-07-09T17:06:26;27.30;99.90
18189;DHT22;9219;50.396;8.546;2023-07-09T17:08:57;27.30;99.90
18189;DHT22;9219;50.396;8.546;2023-07-09T17:11:27;27.40;99.90
18189;DHT22;9219;50.396;8.546;2023-07-09T17:14:00;27.30;99.90
18189;DHT22;9219;50.396;8.546;2023-07-09T17:16:29;27.00;99.90
18189;DHT22;9219;50.396;8.546;2023-07-09T17:19:01;26.80;99.90
18189;DHT22;9219;50.396;8.546;2023-07-09T17:26:35;26.50;99.90
18189;DHT22;9219;50.396;8.546;2023-07-09T17:29:09;26.40;99.90
18189;DHT22;9219;50.396;8.546;2023-07-09T17:31:49;26.50;99.90
18189;DHT22;9219;50.396;8.546;2023-07-09T17:34:20;26.50;99.90
18189;DHT22;9219;50.396;8.546;2023-07-09T17:36:51;26.60;99.90
18189;DHT22;9219;50.396;8.546;2023-07-09T17:39:22;26.80;99.90
18189;DHT22;9219;50.396;8.546;2023-07-09T17:41:55;27.00;99.90
18189;DHT22;9219;50.396;8.546;2023-07-09T17:49:31;26.60;99.90
18189;DHT22;9219;50.396;8.546;2023-07-09T17:52:01;26.60;99.90
18189;DHT22;9219;50.396;8.546;2023-07-09T17:54:30;26.70;99.90
18189;DHT22;9219;50.396;8.546;2023-07-09T17:57:00;26.80;99.90
18189;DHT22;9219;50.396;8.546;2023-07-09T17:59:33;27.10;99.90
18189;DHT22;9219;50.396;8.546;2023-07-09T18:02:10;27.20;99.90
18189;DHT22;9219;50.396;8.546;2023-07-09T18:04:42;27.30;99.90
18189;DHT22;9219;50.396;8.546;2023-07-09T18:12:18;27.20;99.90
18189;DHT22;9219;50.396;8.546;2023-07-09T18:14:54;27.10;99.90
18189;DHT22;9219;50.396;8.546;2023-07-09T18:17:30;27.40;99.90
18189;DHT22;9219;50.396;8.546;2023-07-09T18:20:04;27.60;99.90
18189;DHT22;9219;50.396;8.546;2023-07-09T18:22:41;27.80;99.90
18189;DHT22;9219;50.396;8.546;2023-07-09T18:25:13;27.90;99.90
18189;DHT22;9219;50.396;8.546;2023-07-09T18:27:52;28.00;99.90
18189;DHT22;9219;50.396;8.546;2023-07-09T18:37:59;27.90;99.90
18189;DHT22;9219;50.396;8.546;2023-07-09T18:40:33;28.30;99.90
18189;DHT22;9219;50.396;8.546;2023-07-09T18:43:10;28.10;99.90
18189;DHT22;9219;50.396;8.546;2023-07-09T18:45:58;27.50;99.90
18189;DHT22;9219;50.396;8.546;2023-07-09T18:48:28;27.40;99.90
18189;DHT22;9219;50.396;8.546;2023-07-09T18:50:59;27.40;99.90
18189;DHT22;9219;50.396;8.546;2023-07-09T18:53:30;27.50;99.90
18189;DHT22;9219;50.396;8.546;2023-07-09T19:01:17;27.90;99.90
18189;DHT22;9219;50.396;8.546;2023-07-09T19:03:49;28.40;99.90
18189;DHT22;9219;50.396;8.546;2023-07-09T19:06:19;28.60;99.90
18189;DHT22;9219;50.396;8.546;2023-07-09T19:08:49;28.50;99.90
18189;DHT22;9219;50.396;8.546;2023-07-09T19:11:19;28.30;99.90
18189;DHT22;9219;50.396;8.546;2023-07-09T19:13:50;28.20;99.90
18189;DHT22;9219;50.396;8.546;2023-07-09T19:16:26;28.20;99.90
18189;DHT22;9219;50.396;8.546;2023-07-09T19:24:09;28.20;99.90
18189;DHT22;9219;50.396;8.546;2023-07-09T19:26:47;28.50;99.90
18189;DHT22;9219;50.396;8.546;2023-07-09T19:29:16;28.40;99.90
18189;DHT22;9219;50.396;8.546;2023-07-09T19:31:47;28.60;99.90
18189;DHT22;9219;50.396;8.546;2023-07-09T19:34:20;28.50;99.90
18189;DHT22;9219;50.396;8.546;2023-07-09T19:36:53;28.70;99.90
18189;DHT22;9219;50.396;8.546;2023-07-09T19:39:30;28.50;99.90
18189;DHT22;9219;50.396;8.546;2023-07-09T19:47:14;28.60;99.90
18189;DHT22;9219;50.396;8.546;2023-07-09T19:49:44;28.40;99.90
18189;DHT22;9219;50.396;8.546;2023-07-09T19:52:13;28.40;99.90
18189;DHT22;9219;50.396;8.546;2023-07-09T19:54:44;28.20;99.90
18189;DHT22;9219;50.396;8.546;2023-07-09T19:57:14;28.30;99.90
18189;DHT22;9219;50.396;8.546;2023-07-09T19:59:44;28.40;99.90
18189;DHT22;9219;50.396;8.546;2023-07-09T20:02:22;28.70;99.90
18189;DHT22;9219;50.396;8.546;2023-07-09T20:08:13;28.40;99.90
18189;DHT22;9219;50.396;8.546;2023-07-09T20:10:58;28.60;99.90
18189;DHT22;9219;50.396;8.546;2023-07-09T20:13:32;28.40;99.90
18189;DHT22;9219;50.396;8.546;2023-07-09T20:16:03;28.30;99.90
18189;DHT22;9219;50.396;8.546;2023-07-09T20:18:34;28.50;99.90
18189;DHT22;9219;50.396;8.546;2023-07-09T20:21:14;28.30;99.90
18189;DHT22;9219;50.396;8.546;2023-07-09T20:23:47;28.30;99.90